createdAt,value
2018-12-24T01:25:20.179Z,92.65
2018-12-24T01:28:09.791Z,92.55
2018-12-24T01:30:59.425Z,92.40
2018-12-24T01:33:49.067Z,92.81
2018-12-24T01:39:34.066Z,92.40
2018-12-24T01:42:23.957Z,92.41
2018-12-24T01:45:13.561Z,91.80
2018-12-24T01:48:03.256Z,92.41
2018-12-24T01:50:52.833Z,92.71
2018-12-24T01:53:42.571Z,92.30
2018-12-24T01:59:26.577Z,92.08
2018-12-24T02:05:10.711Z,92.35
2018-12-24T02:08:00.350Z,92.29
2018-12-24T02:10:49.967Z,92.21
2018-12-24T02:13:30.495Z,91.99
2018-12-24T02:16:20.154Z,91.72
2018-12-24T02:19:09.715Z,92.13
2018-12-24T02:21:59.349Z,91.42
2018-12-24T02:24:49.047Z,91.15
2018-12-24T02:27:38.772Z,91.43
2018-12-24T02:30:28.358Z,91.79
2018-12-24T02:33:18.039Z,91.79
2018-12-24T02:36:07.642Z,91.52
2018-12-24T02:38:57.255Z,92.66
2018-12-24T02:41:46.861Z,92.52
2018-12-24T02:44:36.524Z,92.39
2018-12-24T02:47:26.099Z,91.89
2018-12-24T02:50:15.902Z,92.02
2018-12-24T02:53:05.498Z,92.18
2018-12-24T02:55:55.150Z,91.03
2018-12-24T02:58:44.839Z,91.81
2018-12-24T03:01:34.474Z,92.21
2018-12-24T03:04:24.036Z,92.70
2018-12-24T03:13:08.340Z,92.48
2018-12-24T03:15:54.282Z,91.86
2018-12-24T03:18:43.884Z,91.21
2018-12-24T03:21:33.480Z,91.56
2018-12-24T03:24:23.340Z,90.82
2018-12-24T03:27:12.939Z,90.11
2018-12-24T03:30:02.585Z,90.26
2018-12-24T03:32:52.162Z,89.77
2018-12-24T03:35:41.785Z,89.66
2018-12-24T03:38:31.377Z,89.80
2018-12-24T03:41:21.011Z,90.03
2018-12-24T03:44:10.599Z,90.35
2018-12-24T03:47:00.228Z,90.59
2018-12-24T03:49:49.828Z,90.05
2018-12-24T03:52:39.480Z,89.34
2018-12-24T03:55:29.085Z,90.12
2018-12-24T03:58:18.695Z,89.06
2018-12-24T04:04:18.501Z,89.12
2018-12-24T04:07:08.086Z,89.04
2018-12-24T04:09:57.801Z,89.49
2018-12-24T04:12:47.415Z,89.39
2018-12-24T04:15:28.040Z,89.07
2018-12-24T04:18:17.617Z,88.43
2018-12-24T04:24:01.809Z,88.49
2018-12-24T04:26:51.467Z,88.34
2018-12-24T04:29:41.259Z,87.65
2018-12-24T04:32:30.881Z,87.69
2018-12-24T04:35:20.475Z,86.62
2018-12-24T04:38:10.118Z,86.53
2018-12-24T04:40:59.698Z,86.57
2018-12-24T04:43:49.350Z,87.45
2018-12-24T04:46:38.931Z,87.51
2018-12-24T04:49:28.559Z,87.94
2018-12-24T04:52:18.196Z,87.59
2018-12-24T04:55:07.834Z,87.05
2018-12-24T04:57:57.413Z,87.86
2018-12-24T05:00:47.083Z,87.77
2018-12-24T05:03:36.655Z,88.00
2018-12-24T05:06:26.267Z,88.02
2018-12-24T05:09:15.852Z,87.76
2018-12-24T05:12:05.957Z,87.78
2018-12-24T05:14:55.621Z,88.15
2018-12-24T05:17:36.125Z,87.69
2018-12-24T05:20:25.707Z,87.69
2018-12-24T05:23:15.290Z,88.63
2018-12-24T05:26:04.875Z,88.59
2018-12-24T05:28:54.496Z,89.11
2018-12-24T05:31:44.176Z,88.93
2018-12-24T05:34:33.744Z,89.02
2018-12-24T05:37:23.322Z,88.42
2018-12-24T05:40:12.928Z,88.45
2018-12-24T05:43:02.511Z,88.75
2018-12-24T05:45:52.130Z,88.61
2018-12-24T05:48:41.708Z,88.97
2018-12-24T05:51:31.388Z,88.78
2018-12-24T05:54:20.986Z,89.10
2018-12-24T05:57:10.586Z,89.53
2018-12-24T06:00:00.170Z,89.13
2018-12-24T06:02:49.780Z,88.91
2018-12-24T06:05:39.367Z,88.32
2018-12-24T06:08:29.001Z,87.46
2018-12-24T06:11:18.560Z,88.28
2018-12-24T06:14:08.190Z,87.47
2018-12-24T06:16:57.759Z,87.61
2018-12-24T06:19:38.403Z,87.88
2018-12-24T06:22:28.006Z,87.73
2018-12-24T06:25:17.635Z,87.88
2018-12-24T06:28:07.195Z,87.54
2018-12-24T06:30:56.829Z,88.02
